Time;durP1;ratioP1;P1;durP2;ratioP2;P2;SDS_P1;SDS_P2;PMS_P1;PMS_P2;Temp;Humidity;BMP_temperature;BMP_pressure;BME280_temperature;BME280_humidity;BME280_pressure;Samples;Min_cycle;Max_cycle;Signal;HPM_P1;HPM_P2
2022/06/18 00:01:33;;;;;;;12.10;5.95;;;;;;;14.49;96.72;100320.59;5052021;27;20142;-76
2022/06/18 00:04:02;;;;;;;10.57;5.47;;;;;;;14.65;95.53;100311.44;5053664;28;20514;-77
2022/06/18 00:06:31;;;;;;;10.60;5.43;;;;;;;14.52;96.16;100308.63;5051568;28;20053;-76
2022/06/18 00:08:58;;;;;;;11.13;6.50;;;;;;;14.48;96.37;100312.53;5052855;28;20049;-77
2022/06/18 00:14:12;;;;;;;10.43;5.65;;;;;;;14.38;97.32;100305.97;5052628;28;20564;-77
2022/06/18 00:16:41;;;;;;;10.25;5.63;;;;;;;14.47;96.82;100313.50;5051541;28;20044;-77
2022/06/18 00:19:08;;;;;;;12.13;5.60;;;;;;;14.42;96.82;100305.66;5051728;28;20049;-76
2022/06/18 00:21:35;;;;;;;10.63;5.57;;;;;;;14.33;97.32;100311.69;5051704;27;20048;-76
2022/06/18 00:24:06;;;;;;;11.52;5.78;;;;;;;14.36;97.24;100314.19;5051616;28;20044;-77
2022/06/18 00:26:34;;;;;;;10.95;5.50;;;;;;;14.44;97.19;100311.84;5051645;28;20453;-76
2022/06/18 00:29:01;;;;;;;12.52;6.00;;;;;;;14.24;97.44;100310.41;5051161;28;20041;-76
2022/06/18 00:31:32;;;;;;;10.88;6.00;;;;;;;14.33;97.08;100318.00;5051422;28;20105;-76
2022/06/18 00:34:01;;;;;;;14.60;6.47;;;;;;;14.33;96.65;100308.97;5051269;28;20052;-76
2022/06/18 00:36:28;;;;;;;12.52;6.30;;;;;;;14.25;96.98;100314.03;5051308;28;20041;-76
2022/06/18 00:38:56;;;;;;;11.10;6.00;;;;;;;14.06;98.02;100307.03;5051004;28;20048;-76
2022/06/18 00:41:25;;;;;;;12.50;6.32;;;;;;;14.02;98.47;100311.81;5067717;28;20117;-76
2022/06/18 00:43:58;;;;;;;15.18;6.10;;;;;;;14.14;97.97;100304.72;5071275;28;20048;-76
2022/06/18 00:46:31;;;;;;;10.90;5.50;;;;;;;14.18;97.55;100311.72;5071708;28;20399;-77
2022/06/18 00:49:04;;;;;;;12.75;6.22;;;;;;;14.19;97.32;100305.31;5072099;28;20462;-77
2022/06/18 00:51:36;;;;;;;11.38;5.55;;;;;;;14.15;97.98;100306.47;5072441;28;20522;-77
2022/06/18 00:54:06;;;;;;;11.40;6.07;;;;;;;14.14;98.15;100306.56;5072853;28;20380;-76
2022/06/18 00:56:38;;;;;;;12.50;6.68;;;;;;;14.10;98.16;100305.00;5071063;28;20109;-76
2022/06/18 00:59:11;;;;;;;10.20;5.78;;;;;;;14.05;99.16;100306.19;5066314;28;20044;-76
2022/06/18 01:01:42;;;;;;;10.98;5.85;;;;;;;13.95;99.83;100313.19;5051373;28;20060;-77
2022/06/18 01:04:24;;;;;;;11.15;6.20;;;;;;;14.04;99.13;100317.13;5050291;28;20037;-77
2022/06/18 01:06:56;;;;;;;11.52;5.85;;;;;;;14.07;98.80;100311.50;5052223;28;20049;-77
2022/06/18 01:09:23;;;;;;;10.88;5.85;;;;;;;14.00;99.55;100315.59;5050818;28;20056;-77
2022/06/18 01:11:51;;;;;;;11.55;6.05;;;;;;;14.02;99.73;100313.63;5050552;28;20093;-77
2022/06/18 01:14:19;;;;;;;11.77;6.30;;;;;;;13.87;100.00;100316.38;5050751;28;20056;-77
2022/06/18 01:16:47;;;;;;;12.52;6.28;;;;;;;13.85;100.00;100314.69;5050811;28;20117;-77
2022/06/18 01:19:22;;;;;;;12.10;5.78;;;;;;;13.94;99.86;100310.53;5050563;28;20048;-77
2022/06/18 01:21:53;;;;;;;;;;;;;;;13.86;99.81;100311.00;5051405;28;20097;-76
2022/06/18 01:24:23;;;;;;;11.40;6.07;;;;;;;13.77;100.00;100310.63;5051502;28;19928;-76
2022/06/18 01:26:53;;;;;;;11.55;5.93;;;;;;;13.92;99.44;100313.38;5052025;28;20090;-77
2022/06/18 01:29:20;;;;;;;11.38;6.53;;;;;;;13.98;98.88;100312.09;5050676;28;20045;-77
2022/06/18 01:31:48;;;;;;;10.45;5.90;;;;;;;14.03;98.62;100304.53;5050625;28;20060;-77
2022/06/18 01:34:16;;;;;;;12.45;6.70;;;;;;;13.81;100.00;100300.47;5050455;28;20049;-77
2022/06/18 01:36:44;;;;;;;10.98;6.25;;;;;;;13.75;100.00;100300.84;5050637;28;20052;-76
2022/06/18 01:39:14;;;;;;;13.85;5.93;;;;;;;13.81;100.00;100300.47;5050333;28;20041;-77
2022/06/18 01:41:52;;;;;;;11.00;6.20;;;;;;;13.67;100.00;100303.19;5069675;27;20056;-77
2022/06/18 01:44:22;;;;;;;10.68;5.82;;;;;;;13.69;100.00;100302.09;5071624;28;20440;-77
2022/06/18 01:46:52;;;;;;;12.45;6.38;;;;;;;13.58;100.00;100297.31;5071675;28;20448;-76
2022/06/18 01:49:24;;;;;;;12.02;6.10;;;;;;;13.62;100.00;100289.88;5070181;28;20048;-77
2022/06/18 01:51:53;;;;;;;12.25;6.35;;;;;;;13.72;100.00;100290.19;5070235;28;20052;-77
2022/06/18 01:54:24;;;;;;;10.95;6.00;;;;;;;13.74;100.00;100286.38;5069740;28;20483;-77
2022/06/18 01:56:55;;;;;;;11.10;6.00;;;;;;;13.60;100.00;100287.25;5070058;28;20495;-77
2022/06/18 01:59:26;;;;;;;11.57;6.30;;;;;;;13.59;99.90;100277.34;5064597;28;20041;-77
2022/06/18 02:01:54;;;;;;;14.55;6.45;;;;;;;13.46;100.00;100280.00;5050395;28;20433;-77
2022/06/18 02:04:21;;;;;;;13.23;6.60;;;;;;;13.52;100.00;100283.28;5049957;28;20487;-77
2022/06/18 02:06:50;;;;;;;12.43;6.28;;;;;;;13.50;100.00;100279.78;5049797;28;20064;-77
2022/06/18 02:09:29;;;;;;;11.63;6.35;;;;;;;13.55;100.00;100283.94;5049731;28;20509;-77
2022/06/18 02:12:00;;;;;;;12.48;7.10;;;;;;;13.47;100.00;100281.72;5050162;28;20045;-78
2022/06/18 02:14:28;;;;;;;12.80;7.18;;;;;;;13.45;100.00;100293.63;5052452;28;20466;-77
2022/06/18 02:16:57;;;;;;;12.52;6.47;;;;;;;13.37;100.00;100295.91;5053466;28;20049;-76
2022/06/18 02:19:25;;;;;;;13.25;6.43;;;;;;;13.32;100.00;100294.34;5053395;28;20049;-77
2022/06/18 02:21:56;;;;;;;11.20;6.50;;;;;;;13.35;100.00;100297.84;5053511;28;20049;-77
2022/06/18 02:24:24;;;;;;;12.45;6.90;;;;;;;13.33;100.00;100296.09;5053012;28;20041;-77
2022/06/18 02:26:51;;;;;;;14.25;7.25;;;;;;;13.38;100.00;100303.09;5053482;28;20045;-77
2022/06/18 02:29:23;;;;;;;13.10;7.32;;;;;;;13.38;100.00;100303.09;5053236;28;20083;-76
2022/06/18 02:31:52;;;;;;;13.52;7.60;;;;;;;13.42;100.00;100304.63;5053779;28;20507;-77
2022/06/18 02:34:22;;;;;;;15.57;7.38;;;;;;;13.43;100.00;100307.28;5053175;28;20045;-77
2022/06/18 02:36:50;;;;;;;13.50;7.88;;;;;;;13.34;100.00;100307.81;5053316;28;20053;-77
2022/06/18 02:39:24;;;;;;;12.85;7.07;;;;;;;13.38;100.00;100308.50;5052601;28;20041;-77
2022/06/18 02:41:56;;;;;;;12.82;7.00;;;;;;;13.33;100.00;100311.50;5053493;28;20072;-77
2022/06/18 02:44:25;;;;;;;13.95;7.40;;;;;;;13.33;100.00;100311.50;5053181;28;20045;-77
2022/06/18 02:46:53;;;;;;;13.20;7.18;;;;;;;13.40;100.00;100312.84;5053065;28;20049;-77
2022/06/18 02:49:20;;;;;;;12.70;7.47;;;;;;;13.45;100.00;100309.91;5053105;28;20048;-77
2022/06/18 02:51:48;;;;;;;12.98;7.30;;;;;;;13.41;100.00;100309.19;5053043;28;20049;-78
2022/06/18 02:54:15;;;;;;;15.60;7.80;;;;;;;13.32;100.00;100302.50;5052756;27;20048;-77
2022/06/18 02:56:43;;;;;;;14.23;7.38;;;;;;;13.42;100.00;100310.97;5053328;27;20157;-77
2022/06/18 02:59:10;;;;;;;14.20;7.28;;;;;;;13.39;100.00;100316.53;5052775;28;20049;-77
2022/06/18 03:01:40;;;;;;;12.95;7.30;;;;;;;13.45;100.00;100318.06;5052834;28;20495;-78
2022/06/18 03:04:07;;;;;;;12.35;7.03;;;;;;;13.48;100.00;100307.00;5052782;28;20049;-77
2022/06/18 03:06:35;;;;;;;14.18;7.20;;;;;;;13.55;100.00;100302.94;5052334;28;20056;-77
2022/06/18 03:09:03;;;;;;;13.40;7.70;;;;;;;13.49;100.00;100308.75;5053553;28;20402;-78
2022/06/18 03:14:18;;;;;;;17.20;7.38;;;;;;;13.53;100.00;100304.03;5053840;28;20103;-77
2022/06/18 03:16:47;;;;;;;14.45;7.50;;;;;;;13.53;100.00;100301.31;5052687;28;20562;-78
2022/06/18 03:19:26;;;;;;;13.60;7.47;;;;;;;13.57;100.00;100308.28;5052569;28;20053;-77
2022/06/18 03:21:57;;;;;;;12.50;7.38;;;;;;;13.64;100.00;100303.34;5052493;28;20052;-77
2022/06/18 03:24:26;;;;;;;14.55;7.38;;;;;;;13.66;100.00;100312.25;5053526;28;20045;-77
2022/06/18 03:26:53;;;;;;;14.13;7.60;;;;;;;13.72;100.00;100315.47;5051534;28;20055;-77
2022/06/18 03:29:21;;;;;;;14.48;7.63;;;;;;;13.86;100.00;100308.31;5052518;27;20041;-77
2022/06/18 03:31:50;;;;;;;13.27;7.20;;;;;;;13.80;100.00;100312.28;5052521;28;20498;-78
2022/06/18 03:34:18;;;;;;;13.95;7.60;;;;;;;13.95;100.00;100312.28;5052235;28;20045;-77
2022/06/18 03:36:45;;;;;;;12.90;7.15;;;;;;;13.77;100.00;100304.34;5052336;27;20045;-77
2022/06/18 03:39:13;;;;;;;14.43;7.70;;;;;;;13.89;100.00;100309.00;5052008;28;20115;-77
2022/06/18 03:41:40;;;;;;;12.63;7.35;;;;;;;13.87;100.00;100305.50;5071217;28;20048;-77
2022/06/18 03:44:08;;;;;;;15.43;7.80;;;;;;;14.00;100.00;100310.16;5072297;28;20368;-77
2022/06/18 03:46:37;;;;;;;13.57;7.70;;;;;;;14.02;100.00;100308.22;5072295;28;20052;-77
2022/06/18 03:49:08;;;;;;;13.95;7.57;;;;;;;14.17;100.00;100306.34;5071997;28;20044;-77
2022/06/18 03:51:35;;;;;;;13.07;7.88;;;;;;;14.26;100.00;100305.75;5073103;28;20441;-78
2022/06/18 03:54:03;;;;;;;11.88;7.38;;;;;;;14.45;100.00;100310.88;5071957;28;20105;-77
2022/06/18 03:56:32;;;;;;;13.43;7.68;;;;;;;14.34;100.00;100308.00;5072142;28;20048;-77
2022/06/18 03:59:00;;;;;;;16.13;7.45;;;;;;;14.28;100.00;100309.28;5068095;28;20044;-77
2022/06/18 04:01:30;;;;;;;13.88;7.40;;;;;;;14.49;100.00;100311.56;5052207;28;20094;-77
2022/06/18 04:03:57;;;;;;;13.18;7.45;;;;;;;14.65;100.00;100306.00;5051996;28;20124;-77
2022/06/18 04:06:27;;;;;;;13.32;7.22;;;;;;;14.65;100.00;100306.00;5051387;28;20045;-76
2022/06/18 04:08:54;;;;;;;13.27;7.15;;;;;;;14.82;100.00;100304.91;5053364;28;20124;-78
2022/06/18 04:11:22;;;;;;;12.43;7.47;;;;;;;14.87;99.91;100305.47;5051978;28;20048;-77
2022/06/18 04:13:49;;;;;;;14.60;7.20;;;;;;;14.93;100.00;100312.34;5051912;28;20045;-77
2022/06/18 04:16:17;;;;;;;12.18;6.95;;;;;;;14.92;100.00;100311.47;5051599;28;20048;-77
2022/06/18 04:18:44;;;;;;;13.40;6.78;;;;;;;15.02;100.00;100308.13;5051711;28;20044;-78
2022/06/18 04:21:12;;;;;;;12.20;7.05;;;;;;;15.13;99.98;100315.56;5051418;28;20045;-78
2022/06/18 04:23:41;;;;;;;14.15;7.22;;;;;;;15.17;99.96;100312.53;5051635;28;20045;-77
2022/06/18 04:26:09;;;;;;;11.80;7.00;;;;;;;15.18;99.50;100318.81;5051591;28;20074;-77
2022/06/18 04:28:37;;;;;;;12.95;6.93;;;;;;;15.23;100.00;100323.97;5051887;27;20045;-76
2022/06/18 04:31:05;;;;;;;13.93;6.75;;;;;;;15.34;99.42;100318.66;5051377;28;20097;-77
2022/06/18 04:33:32;;;;;;;11.63;6.95;;;;;;;15.23;100.00;100319.38;5051226;28;20049;-77
2022/06/18 04:36:00;;;;;;;14.38;7.40;;;;;;;15.30;100.00;100320.72;5051405;28;20041;-78
2022/06/18 04:38:28;;;;;;;12.73;7.03;;;;;;;15.37;100.00;100323.03;5051060;28;20045;-77
2022/06/18 04:40:57;;;;;;;14.55;9.63;;;;;;;15.35;99.74;100315.84;5064048;28;20045;-77
2022/06/18 04:43:24;;;;;;;12.95;7.63;;;;;;;15.46;100.00;100311.50;5071471;27;20491;-77
2022/06/18 04:45:52;;;;;;;15.68;6.97;;;;;;;15.65;99.08;100321.97;5071315;28;20067;-78
2022/06/18 04:48:20;;;;;;;14.00;6.72;;;;;;;15.75;98.42;100322.19;5070854;28;20591;-78
2022/06/18 04:50:47;;;;;;;12.15;6.82;;;;;;;15.81;98.35;100321.75;5071221;28;20048;-77
2022/06/18 04:53:16;;;;;;;11.43;6.57;;;;;;;15.89;98.15;100323.94;5071218;28;20502;-76
2022/06/18 04:55:43;;;;;;;12.93;7.00;;;;;;;15.98;98.08;100325.16;5071272;27;20119;-77
2022/06/18 04:58:12;;;;;;;17.55;7.88;;;;;;;16.08;97.63;100320.78;5071240;28;20067;-77
2022/06/18 05:00:40;;;;;;;11.98;7.15;;;;;;;16.09;98.00;100325.25;5053322;28;20068;-77
2022/06/18 05:03:08;;;;;;;12.98;7.15;;;;;;;16.17;98.00;100327.44;5050822;28;20041;-77
2022/06/18 05:05:36;;;;;;;11.35;6.63;;;;;;;16.21;97.45;100320.78;5050960;28;20079;-78
2022/06/18 05:08:03;;;;;;;11.52;6.70;;;;;;;16.21;98.05;100318.94;5050751;28;20126;-77
2022/06/18 05:10:31;;;;;;;12.80;6.90;;;;;;;16.21;98.28;100318.06;5050862;28;20057;-77
2022/06/18 05:12:58;;;;;;;11.48;6.55;;;;;;;16.25;97.75;100316.00;5050898;28;20094;-77
2022/06/18 05:15:27;;;;;;;13.52;7.32;;;;;;;16.40;96.93;100314.00;5050890;28;20093;-76
2022/06/18 05:17:54;;;;;;;11.38;6.93;;;;;;;16.51;97.00;100316.78;5050454;28;20540;-76
2022/06/18 05:20:24;;;;;;;11.30;6.57;;;;;;;16.51;96.42;100317.66;5050851;28;20053;-75
2022/06/18 05:22:52;;;;;;;12.68;6.40;;;;;;;16.70;95.43;100312.69;5050691;28;20041;-77
2022/06/18 05:25:20;;;;;;;10.95;6.00;;;;;;;16.74;94.94;100317.81;5050595;28;20045;-77
2022/06/18 05:27:48;;;;;;;11.23;6.40;;;;;;;16.82;94.57;100316.34;5050762;28;20078;-77
2022/06/18 05:30:17;;;;;;;10.48;5.35;;;;;;;16.99;93.92;100324.19;5050642;28;20047;-78
2022/06/18 05:32:46;;;;;;;11.35;5.50;;;;;;;16.93;93.23;100320.03;5050193;28;20052;-78
2022/06/18 05:35:15;;;;;;;9.45;5.15;;;;;;;17.06;92.49;100328.19;5050471;28;20511;-77
2022/06/18 05:37:42;;;;;;;10.23;5.40;;;;;;;17.09;92.12;100324.34;5050707;27;20041;-78
2022/06/18 05:40:12;;;;;;;10.48;5.97;;;;;;;17.29;91.63;100322.81;5056676;28;20048;-77
2022/06/18 05:42:40;;;;;;;10.20;5.63;;;;;;;17.26;91.88;100328.50;5070356;28;20093;-78
2022/06/18 05:45:08;;;;;;;9.40;5.38;;;;;;;17.29;91.75;100325.53;5070294;28;20056;-77
2022/06/18 05:47:36;;;;;;;9.60;5.10;;;;;;;17.43;91.30;100326.34;5069958;28;20066;-77
2022/06/18 05:50:08;;;;;;;12.05;5.18;;;;;;;17.51;90.48;100326.63;5069671;28;20487;-78
2022/06/18 05:52:35;;;;;;;9.93;4.90;;;;;;;17.60;90.10;100323.16;5070778;28;20423;-78
2022/06/18 05:55:03;;;;;;;9.30;4.47;;;;;;;17.64;89.48;100321.94;5070261;28;20112;-78
2022/06/18 05:57:31;;;;;;;8.07;4.50;;;;;;;17.79;88.57;100319.84;5070268;28;20048;-78
2022/06/18 05:59:58;;;;;;;8.23;4.05;;;;;;;17.85;87.05;100318.50;5058066;28;20396;-78
2022/06/18 06:02:26;;;;;;;7.65;3.67;;;;;;;17.85;87.15;100317.63;5049937;28;20519;-78
2022/06/18 06:04:54;;;;;;;7.03;3.50;;;;;;;17.93;85.66;100312.41;5050153;28;20048;-78
2022/06/18 06:07:24;;;;;;;7.90;3.75;;;;;;;18.01;83.57;100314.56;5049932;28;20064;-78
2022/06/18 06:12:37;;;;;;;8.20;3.63;;;;;;;18.05;83.76;100321.53;5050490;28;20384;-78
2022/06/18 06:15:06;;;;;;;12.02;5.18;;;;;;;18.05;82.63;100318.78;5049839;28;20311;-78
2022/06/18 06:17:33;;;;;;;6.88;3.25;;;;;;;18.10;82.48;100320.16;5050095;28;20045;-78
2022/06/18 06:20:02;;;;;;;6.75;2.95;;;;;;;18.15;81.52;100322.50;5049989;28;20049;-78
2022/06/18 06:22:30;;;;;;;6.60;3.10;;;;;;;18.23;80.75;100316.44;5050182;28;20381;-77
2022/06/18 06:24:58;;;;;;;6.53;3.38;;;;;;;18.35;80.52;100320.88;5049910;28;20045;-77
2022/06/18 06:27:25;;;;;;;8.27;4.10;;;;;;;18.33;80.34;100316.56;5050129;28;20041;-78
2022/06/18 06:29:53;;;;;;;7.65;3.40;;;;;;;18.35;80.38;100318.16;5049644;28;20101;-78
2022/06/18 06:32:21;;;;;;;6.40;3.30;;;;;;;18.35;80.68;100306.38;5049744;28;20459;-77
2022/06/18 06:34:48;;;;;;;7.65;3.30;;;;;;;18.36;80.51;100306.25;5049707;28;20102;-78
2022/06/18 06:37:16;;;;;;;7.50;3.38;;;;;;;18.50;80.55;100312.44;5049773;28;20045;-78
2022/06/18 06:39:44;;;;;;;6.30;3.00;;;;;;;18.63;79.85;100310.41;5052296;28;20044;-78
2022/06/18 06:42:12;;;;;;;6.13;2.75;;;;;;;18.62;79.12;100303.22;5069631;28;20055;-77
2022/06/18 06:44:40;;;;;;;8.10;3.40;;;;;;;18.64;78.73;100301.22;5069484;28;20440;-77
2022/06/18 06:47:07;;;;;;;6.68;3.17;;;;;;;18.60;78.58;100301.63;5069678;28;20041;-76
2022/06/18 06:49:35;;;;;;;7.13;3.55;;;;;;;18.71;78.91;100315.25;5069639;28;20510;-77
2022/06/18 06:52:02;;;;;;;4.88;3.00;;;;;;;18.79;78.71;100303.69;5069592;28;20056;-77
2022/06/18 06:54:30;;;;;;;6.00;3.10;;;;;;;18.85;78.77;100296.81;5069655;28;20045;-76
2022/06/18 06:59:43;;;;;;;7.25;3.00;;;;;;;18.86;78.63;100298.53;5060101;28;20052;-77
2022/06/18 07:02:15;;;;;;;6.65;2.85;;;;;;;18.90;78.17;100291.81;5053003;28;20049;-75
2022/06/18 07:04:43;;;;;;;7.10;3.17;;;;;;;18.98;77.35;100297.56;5054578;28;20479;-75
2022/06/18 07:07:13;;;;;;;5.95;2.78;;;;;;;19.08;76.15;100300.38;5052626;28;20428;-77
2022/06/18 07:09:41;;;;;;;6.70;3.10;;;;;;;19.15;75.93;100296.09;5053524;28;20491;-77
2022/06/18 07:12:10;;;;;;;5.45;2.92;;;;;;;19.24;75.65;100294.44;5053036;28;20045;-77
2022/06/18 07:14:37;;;;;;;5.13;2.88;;;;;;;19.20;75.71;100295.72;5052324;28;20049;-77
2022/06/18 07:17:05;;;;;;;6.43;3.00;;;;;;;19.36;75.28;100296.13;5052715;28;20408;-77
2022/06/18 07:19:33;;;;;;;6.57;2.80;;;;;;;19.50;73.72;100296.81;5052624;28;20415;-77
2022/06/18 07:22:00;;;;;;;7.70;3.00;;;;;;;19.43;74.75;100287.41;5052731;28;20049;-75
2022/06/18 07:24:29;;;;;;;5.40;3.00;;;;;;;19.59;74.90;100290.53;5052643;27;20068;-76
2022/06/18 07:26:56;;;;;;;7.32;3.28;;;;;;;19.61;75.18;100294.00;5052524;28;20075;-76
2022/06/18 07:29:25;;;;;;;8.35;3.10;;;;;;;19.53;74.86;100296.53;5052204;28;20048;-76
2022/06/18 07:31:53;;;;;;;7.53;3.25;;;;;;;19.71;74.18;100291.34;5052309;28;20086;-77
2022/06/18 07:34:20;;;;;;;5.10;2.88;;;;;;;19.88;74.08;100291.69;5052619;28;20098;-77
2022/06/18 07:36:48;;;;;;;5.65;2.67;;;;;;;19.78;74.00;100288.91;5052377;28;20407;-77
2022/06/18 07:39:15;;;;;;;5.35;2.60;;;;;;;19.90;72.85;100292.44;5052046;28;20037;-77
2022/06/18 07:41:45;;;;;;;6.82;2.80;;;;;;;20.08;71.08;100289.94;5071449;28;20376;-77
2022/06/18 07:44:12;;;;;;;6.75;2.63;;;;;;;19.94;70.80;100289.31;5071944;28;20159;-75
2022/06/18 07:46:42;;;;;;;6.00;2.60;;;;;;;19.96;70.21;100283.69;5072547;28;20599;-76
2022/06/18 07:49:09;;;;;;;4.45;2.42;;;;;;;20.12;69.96;100289.56;5072137;28;20045;-77
2022/06/18 07:51:36;;;;;;;5.35;2.42;;;;;;;20.15;69.65;100291.13;5072222;28;20052;-77
2022/06/18 07:54:04;;;;;;;5.07;2.72;;;;;;;20.10;69.09;100287.94;5072215;28;20052;-77
2022/06/18 07:56:33;;;;;;;5.85;2.67;;;;;;;20.19;69.26;100287.09;5071593;28;20418;-77
2022/06/18 07:59:00;;;;;;;5.90;2.40;;;;;;;20.28;68.59;100290.91;5068143;28;20040;-78
2022/06/18 08:01:28;;;;;;;4.05;2.42;;;;;;;20.25;67.88;100286.56;5052088;27;20045;-77
2022/06/18 08:03:56;;;;;;;5.65;2.97;;;;;;;20.30;67.47;100288.03;5051972;28;20084;-78
2022/06/18 08:06:24;;;;;;;5.00;2.40;;;;;;;20.23;66.86;100283.09;5051694;28;20048;-77
2022/06/18 08:08:51;;;;;;;5.43;2.55;;;;;;;20.44;67.06;100278.56;5053401;28;20101;-78
2022/06/18 08:11:20;;;;;;;6.13;2.60;;;;;;;20.48;67.12;100289.09;5051004;28;20056;-77
2022/06/18 08:13:49;;;;;;;4.35;2.30;;;;;;;20.49;66.64;100279.84;5051802;28;20041;-77
2022/06/18 08:16:17;;;;;;;5.82;2.70;;;;;;;20.41;66.41;100280.56;5051788;28;20052;-77
2022/06/18 08:18:45;;;;;;;7.63;3.20;;;;;;;20.46;66.09;100282.88;5051686;28;20053;-78
2022/06/18 08:21:18;;;;;;;9.95;3.65;;;;;;;20.53;65.16;100280.44;5051769;28;20491;-78
2022/06/18 08:23:46;;;;;;;5.20;2.80;;;;;;;20.45;64.49;100272.06;5052071;28;20045;-76
2022/06/18 08:26:14;;;;;;;6.95;2.47;;;;;;;20.63;65.14;100277.75;5050756;28;20049;-73
2022/06/18 08:28:41;;;;;;;6.95;2.40;;;;;;;20.64;65.27;100268.50;5051634;28;20045;-73
2022/06/18 08:31:10;;;;;;;6.63;3.13;;;;;;;20.77;64.89;100263.59;5051398;28;20052;-74
2022/06/18 08:33:38;;;;;;;7.22;3.30;;;;;;;20.90;64.70;100270.72;5051388;28;20407;-73
2022/06/18 08:36:09;;;;;;;4.95;2.70;;;;;;;20.87;63.71;100268.25;5057430;28;20051;-73
2022/06/18 08:38:39;;;;;;;6.60;2.80;;;;;;;20.86;63.37;100263.78;5070478;28;20044;-72
2022/06/18 08:41:18;;;;;;;6.30;3.25;;;;;;;20.91;63.18;100262.34;5064676;28;20099;-73
2022/06/18 08:44:00;;;;;;;6.93;2.90;;;;;;;20.92;63.52;100261.31;5071130;28;20045;-72
2022/06/18 08:46:35;;;;;;;7.43;3.15;;;;;;;20.88;63.79;100261.75;5070188;28;20044;-73
2022/06/18 08:49:19;;;;;;;4.65;2.30;;;;;;;20.93;62.19;100257.56;5066375;28;20048;-73
2022/06/18 08:51:55;;;;;;;7.38;2.55;;;;;;;20.93;62.01;100267.66;5058394;28;20088;-73
2022/06/18 08:54:36;;;;;;;4.38;2.42;;;;;;;20.95;62.24;100271.13;5069969;28;20125;-73
2022/06/18 08:57:06;;;;;;;4.13;2.40;;;;;;;20.94;61.89;100269.41;5050719;28;20538;-74
2022/06/18 08:59:43;;;;;;;4.68;2.33;;;;;;;20.99;62.31;100267.09;5051709;27;20510;-76
2022/06/18 09:02:19;;;;;;;7.43;2.83;;;;;;;20.92;62.80;100264.06;5051892;28;20086;-76
2022/06/18 09:04:57;;;;;;;5.38;2.60;;;;;;;20.83;62.03;100274.03;5056621;28;20032;-75
2022/06/18 09:07:50;;;;;;;7.72;2.40;;;;;;;20.88;60.54;100264.50;5068281;28;20060;-74
2022/06/18 09:10:27;;;;;;;5.00;2.30;;;;;;;21.17;60.52;100264.50;5051592;28;20069;-76
2022/06/18 09:12:57;;;;;;;6.95;2.90;;;;;;;21.35;60.79;100258.28;5053621;28;20048;-76
2022/06/18 09:15:29;;;;;;;6.75;2.80;;;;;;;21.35;61.43;100261.88;5060419;27;20041;-75
2022/06/18 09:18:01;;;;;;;5.20;2.58;;;;;;;21.36;60.69;100258.13;5069442;28;20041;-76
2022/06/18 09:20:32;;;;;;;5.25;2.30;;;;;;;21.63;60.31;100250.13;5071242;27;20040;-75
2022/06/18 09:23:04;;;;;;;5.47;2.47;;;;;;;21.76;60.36;100244.31;5069979;28;20044;-75
2022/06/18 09:25:36;;;;;;;7.30;2.50;;;;;;;21.76;59.68;100252.56;5071129;28;20048;-75
2022/06/18 09:28:06;;;;;;;6.57;2.40;;;;;;;21.66;59.53;100247.97;5054100;27;20131;-76
2022/06/18 09:30:36;;;;;;;7.70;2.90;;;;;;;21.66;59.46;100247.97;5049489;27;20048;-76
2022/06/18 09:33:08;;;;;;;6.43;2.90;;;;;;;21.68;58.70;100240.44;5050444;27;20045;-76
2022/06/18 09:35:40;;;;;;;8.18;3.67;;;;;;;21.82;58.41;100235.47;5051513;27;20044;-75
2022/06/18 09:38:12;;;;;;;8.93;4.68;;;;;;;21.68;58.52;100240.44;5051763;27;20045;-75
2022/06/18 09:40:46;;;;;;;4.95;2.50;;;;;;;21.76;57.24;100236.94;5063936;28;20047;-75
2022/06/18 09:43:19;;;;;;;3.38;2.30;;;;;;;21.76;56.35;100236.06;5060526;28;20041;-75
2022/06/18 09:45:49;;;;;;;8.00;2.53;;;;;;;21.89;56.55;100233.88;5059133;28;20056;-73
2022/06/18 09:48:17;;;;;;;5.05;2.50;;;;;;;21.95;56.56;100230.50;5069753;28;20045;-74
2022/06/18 09:50:47;;;;;;;7.28;2.60;;;;;;;21.75;56.69;100229.72;5070143;28;20048;-74
2022/06/18 09:53:19;;;;;;;4.60;2.70;;;;;;;21.82;57.00;100232.72;5051115;28;20049;-73
2022/06/18 09:55:50;;;;;;;12.30;2.97;;;;;;;21.95;57.04;100225.00;5050445;28;20415;-73
2022/06/18 09:58:22;;;;;;;8.25;2.85;;;;;;;21.93;57.81;100226.16;5050894;28;20496;-73
2022/06/18 10:00:50;;;;;;;6.97;3.20;;;;;;;21.86;57.08;100220.44;5055756;28;20399;-73
2022/06/18 10:08:46;;;;;;;6.88;2.70;;;;;;;22.09;56.48;100215.41;5029613;28;20091;-73
2022/06/18 10:11:15;;;;;;;61.65;54.90;;;;;;;22.03;57.22;100210.53;5029844;28;20045;-73
2022/06/18 10:13:46;;;;;;;9.32;4.50;;;;;;;22.04;57.37;100211.38;5029952;28;20499;-73
2022/06/18 10:16:23;;;;;;;5.72;3.05;;;;;;;22.18;58.11;100208.09;5031389;28;20042;-74
2022/06/18 10:18:56;;;;;;;5.53;3.28;;;;;;;22.27;57.08;100212.69;5031187;28;20042;-73
2022/06/18 10:21:32;;;;;;;7.28;3.30;;;;;;;22.22;56.60;100192.16;5029223;28;20038;-73
2022/06/18 10:24:05;;;;;;;7.22;3.30;;;;;;;22.39;57.44;100188.56;5028640;28;20053;-74
2022/06/18 10:26:40;;;;;;;91.03;78.75;;;;;;;22.39;57.39;100191.31;5030689;28;20102;-72
2022/06/18 10:29:17;;;;;;;102.65;83.03;;;;;;;22.46;57.54;100182.50;5031203;28;20408;-72
2022/06/18 10:31:58;;;;;;;21.55;12.98;;;;;;;22.52;57.75;100182.72;5030698;28;20053;-72
2022/06/18 10:34:40;;;;;;;11.60;4.10;;;;;;;22.53;57.00;100176.19;5011326;28;20049;-72
2022/06/18 10:37:16;;;;;;;8.68;3.20;;;;;;;22.43;54.37;100178.13;5013439;28;20046;-72
2022/06/18 10:40:00;;;;;;;7.70;3.50;;;;;;;22.43;53.68;100181.72;5034025;28;20121;-75
2022/06/18 10:42:40;;;;;;;7.95;3.50;;;;;;;22.68;53.69;100167.41;5033242;28;20107;-73
2022/06/18 10:45:14;;;;;;;8.13;3.85;;;;;;;22.65;53.49;100170.47;5033002;28;20060;-73
2022/06/18 10:47:45;;;;;;;9.50;3.55;;;;;;;22.52;54.30;100163.47;5034949;28;20042;-74
2022/06/18 10:50:16;;;;;;;7.32;3.33;;;;;;;22.52;53.93;100165.38;5031310;28;20041;-73
2022/06/18 10:52:44;;;;;;;11.20;3.70;;;;;;;22.48;53.79;100180.47;5036038;28;20064;-74
2022/06/18 10:55:16;;;;;;;9.60;3.47;;;;;;;22.54;53.99;100174.31;5032470;28;20057;-73
2022/06/18 10:57:45;;;;;;;64.30;54.45;;;;;;;22.57;53.88;100163.84;5033530;28;20045;-75
2022/06/18 11:00:17;;;;;;;23.38;15.23;;;;;;;22.72;53.68;100160.56;5032757;28;20050;-72
2022/06/18 11:02:45;;;;;;;7.72;3.55;;;;;;;22.77;53.44;100160.94;5032511;28;20046;-71
2022/06/18 11:05:34;;;;;;;17.38;12.20;;;;;;;22.99;53.34;100154.06;5032758;28;20060;-72
2022/06/18 11:08:04;;;;;;;105.25;93.13;;;;;;;23.34;53.45;100142.31;5049701;28;20044;-73
2022/06/18 11:10:36;;;;;;;52.42;41.42;;;;;;;23.39;52.18;100149.03;5060184;27;20056;-74
2022/06/18 11:13:07;;;;;;;13.30;7.80;;;;;;;22.98;49.70;100144.09;5053000;27;20053;-72
2022/06/18 11:15:36;;;;;;;8.25;3.08;;;;;;;22.92;51.19;100139.22;5059300;28;20041;-73
2022/06/18 11:18:05;;;;;;;8.20;2.78;;;;;;;22.66;49.96;100150.19;5061421;28;20041;-75
2022/06/18 11:20:33;;;;;;;5.60;2.80;;;;;;;22.56;50.15;100147.50;5061552;27;20491;-71
2022/06/18 11:23:03;;;;;;;7.20;2.67;;;;;;;22.69;51.39;100145.22;5061097;27;20041;-74
2022/06/18 11:25:46;;;;;;;7.32;2.58;;;;;;;22.61;51.85;100142.41;5061921;28;20474;-75
2022/06/18 11:28:18;;;;;;;6.43;2.80;;;;;;;22.70;52.00;100141.44;5063785;27;20487;-74
2022/06/18 11:30:47;;;;;;;5.15;2.63;;;;;;;22.61;51.98;100138.75;5063341;28;20120;-74
2022/06/18 11:33:21;;;;;;;6.50;2.80;;;;;;;22.61;51.62;100138.75;5058726;27;20045;-74
2022/06/18 11:35:50;;;;;;;7.57;3.17;;;;;;;22.57;51.55;100139.06;5062124;28;20089;-74
2022/06/18 11:38:23;;;;;;;8.15;3.00;;;;;;;22.45;52.19;100134.81;5063930;27;20124;-74
2022/06/18 11:40:55;;;;;;;8.27;3.05;;;;;;;22.40;52.37;100135.25;5063902;28;20522;-73
2022/06/18 11:43:38;;;;;;;8.75;3.00;;;;;;;22.24;52.54;100140.63;5060297;28;20049;-73
2022/06/18 11:46:12;;;;;;;7.47;3.20;;;;;;;22.28;53.46;100136.53;5057928;28;20059;-73
2022/06/18 11:48:44;;;;;;;11.05;6.65;;;;;;;22.17;52.92;100134.00;5062557;28;20041;-74